Time;durP1;ratioP1;P1;durP2;ratioP2;P2;SDS_P1;SDS_P2;PMS_P1;PMS_P2;Temp;Humidity;BMP_temperature;BMP_pressure;BME280_temperature;BME280_humidity;BME280_pressure;Samples;Min_cycle;Max_cycle;Signal;HPM_P1;HPM_P2
2023/04/11 00:01:31;;;;;;;;;62.33;49.00;;;;;6.69;100.00;99695.28;6312965;20;3623171;-61
2023/04/11 00:04:00;;;;;;;;;57.50;47.00;;;;;6.83;100.00;99695.53;6310418;20;2855514;-61
2023/04/11 00:06:32;;;;;;;;;57.67;44.33;;;;;6.85;100.00;99688.34;6283397;20;2881640;-61
2023/04/11 00:09:02;;;;;;;;;55.67;44.67;;;;;6.75;100.00;99692.34;6311720;20;2865995;-61
2023/04/11 00:11:31;;;;;;;;;50.50;42.00;;;;;6.88;100.00;99682.00;6312169;20;2845246;-61
2023/04/11 00:14:00;;;;;;;;;54.00;42.00;;;;;6.93;100.00;99682.66;6282916;20;2857567;-61
2023/04/11 00:16:32;;;;;;;;;59.00;44.50;;;;;6.82;100.00;99683.16;6275819;20;2864874;-61
2023/04/11 00:19:01;;;;;;;;;53.00;42.00;;;;;6.93;100.00;99685.31;6280246;20;2852572;-61
2023/04/11 00:21:30;;;;;;;;;44.00;39.00;;;;;6.88;100.00;99682.84;6281042;20;2864996;-61
2023/04/11 00:23:58;;;;;;;;;52.00;40.00;;;;;6.75;100.00;99682.53;6280027;20;2579444;-61
2023/04/11 00:26:27;;;;;;;;;42.00;37.00;;;;;6.58;100.00;99669.09;6280412;20;2852519;-61
2023/04/11 00:28:56;;;;;;;;;57.00;42.00;;;;;6.51;100.00;99681.88;6280474;20;2854429;-61
2023/04/11 00:31:25;;;;;;;;;61.00;47.67;;;;;6.53;100.00;99680.00;6280947;20;2849735;-61
2023/04/11 00:33:55;;;;;;;;;57.00;44.33;;;;;6.76;100.00;99675.41;6312750;20;2866013;-60
2023/04/11 00:36:25;;;;;;;;;64.00;45.67;;;;;6.59;100.00;99676.19;6313178;20;3635054;-60
2023/04/11 00:38:57;;;;;;;;;59.00;43.67;;;;;6.49;100.00;99677.53;6306968;20;2871247;-60
2023/04/11 00:41:27;;;;;;;;;57.67;46.00;;;;;6.64;100.00;99682.19;6308551;20;3610701;-60
2023/04/11 00:43:57;;;;;;;;;55.33;45.00;;;;;6.73;100.00;99681.75;6308428;20;2863945;-60
2023/04/11 00:46:26;;;;;;;;;64.00;48.00;;;;;6.54;100.00;99680.84;6311120;20;3618037;-60
2023/04/11 00:48:56;;;;;;;;;56.00;43.50;;;;;6.60;100.00;99680.56;6308967;20;2867989;-61
2023/04/11 00:51:26;;;;;;;;;52.00;41.50;;;;;6.48;100.00;99683.81;6277661;20;2860709;-61
2023/04/11 00:53:54;;;;;;;;;46.00;39.50;;;;;6.29;100.00;99679.31;6279195;20;2850314;-60
2023/04/11 00:56:23;;;;;;;;;41.50;37.50;;;;;6.30;100.00;99681.03;6278440;20;2857530;-60
2023/04/11 00:58:52;;;;;;;;;47.50;39.50;;;;;6.28;100.00;99680.22;6280334;20;2859709;-60
2023/04/11 01:01:23;;;;;;;;;45.00;38.33;;;;;6.30;100.00;99673.03;6274371;20;2873706;-60
2023/04/11 01:03:53;;;;;;;;;42.67;34.33;;;;;6.18;100.00;99670.03;6309222;20;3611788;-60
2023/04/11 01:06:23;;;;;;;;;48.33;39.00;;;;;6.10;100.00;99662.34;6311323;20;3625298;-60
2023/04/11 01:08:53;;;;;;;;;51.33;35.33;;;;;6.33;100.00;99667.53;6312101;20;3638772;-60
2023/04/11 01:11:23;;;;;;;;;47.00;38.00;;;;;6.00;100.00;99661.03;6305821;20;2870141;-60
2023/04/11 01:13:53;;;;;;;;;51.50;44.00;;;;;5.93;100.00;99653.31;6307517;20;2859653;-60
2023/04/11 01:16:21;;;;;;;;;53.00;39.00;;;;;6.23;100.00;99652.88;6273892;20;2753381;-60
2023/04/11 01:18:51;;;;;;;;;46.00;41.00;;;;;6.22;100.00;99644.97;6310135;20;2859700;-59
2023/04/11 01:21:21;;;;;;;;;52.00;41.50;;;;;5.91;100.00;99652.47;6275506;20;2870227;-60
2023/04/11 01:23:51;;;;;;;;;48.00;37.00;;;;;5.77;100.00;99641.53;6274838;20;2853427;-60
2023/04/11 01:26:21;;;;;;;;;50.33;40.00;;;;;5.76;100.00;99642.47;6275325;20;2863917;-59
2023/04/11 01:28:51;;;;;;;;;45.33;40.00;;;;;5.89;100.00;99637.47;6308423;20;2873182;-60
2023/04/11 01:31:20;;;;;;;;;42.67;37.00;;;;;5.95;100.00;99639.94;6307382;20;2861867;-59
2023/04/11 01:33:49;;;;;;;;;53.50;41.00;;;;;5.91;100.00;99638.28;6307339;20;2862788;-60
2023/04/11 01:36:18;;;;;;;;;53.50;41.50;;;;;6.04;100.00;99639.50;6275808;20;2860796;-60
2023/04/11 01:38:48;;;;;;;;;55.00;41.00;;;;;5.96;100.00;99638.13;6274186;20;2859808;-60
2023/04/11 01:41:19;;;;;;;;;54.00;41.00;;;;;5.91;100.00;99631.16;6277220;20;2852391;-60
2023/04/11 01:43:49;;;;;;;;;46.50;40.00;;;;;5.46;100.00;99623.31;6275394;20;2863929;-60
2023/04/11 01:46:19;;;;;;;;;52.00;38.67;;;;;5.03;100.00;99625.09;6283288;20;2860739;-60
2023/04/11 01:48:55;;;;;;;;;58.33;42.00;;;;;5.19;100.00;99620.00;6312270;20;2870076;-60
2023/04/11 01:51:24;;;;;;;;;53.00;42.50;;;;;5.02;100.00;99602.91;6312934;20;2847172;-59
2023/04/11 01:53:52;;;;;;;;;49.50;40.00;;;;;5.12;100.00;99615.84;6280233;20;2499230;-60
2023/04/11 01:56:21;;;;;;;;;46.00;39.50;;;;;5.20;100.00;99608.41;6285821;20;2840899;-60
2023/04/11 01:58:50;;;;;;;;;61.00;50.00;;;;;5.26;100.00;99610.81;6281294;20;2873237;-60
2023/04/11 02:01:20;;;;;;;;;61.00;48.33;;;;;5.47;100.00;99604.59;6281655;20;2870163;-59
2023/04/11 02:03:49;;;;;;;;;61.00;47.00;;;;;5.33;100.00;99612.31;6315941;20;2865971;-60
2023/04/11 02:06:18;;;;;;;;;59.50;47.00;;;;;5.43;100.00;99603.00;6284704;20;2862821;-60
2023/04/11 02:08:47;;;;;;;;;58.50;46.00;;;;;5.26;100.00;99594.84;6281897;20;2874273;-59
2023/04/11 02:11:16;;;;;;;;;57.00;45.50;;;;;5.21;100.00;99595.06;6284906;20;2851317;-60
2023/04/11 02:13:45;;;;;;;;;55.50;44.00;;;;;5.06;100.00;99587.69;6281900;20;2859651;-60
2023/04/11 02:16:14;;;;;;;;;57.50;47.00;;;;;5.12;100.00;99600.75;6280834;20;2861693;-60
2023/04/11 02:18:45;;;;;;;;;58.00;43.33;;;;;5.21;100.00;99594.19;6284041;20;2871141;-60
2023/04/11 02:21:14;;;;;;;;;57.67;46.33;;;;;4.99;100.00;99592.38;6313100;20;2875321;-59
2023/04/11 02:23:44;;;;;;;;;58.33;45.00;;;;;5.25;100.00;99593.13;6314976;20;2882736;-59
2023/04/11 02:26:13;;;;;;;;;59.00;45.00;;;;;4.96;100.00;99592.53;6314349;20;2862750;-59
2023/04/11 02:28:42;;;;;;;;;56.00;44.00;;;;;4.99;100.00;99588.88;6282888;20;2865916;-60
2023/04/11 02:31:11;;;;;;;;;62.00;46.00;;;;;5.06;100.00;99590.38;6279450;20;3630463;-59
2023/04/11 02:33:40;;;;;;;;;58.50;46.50;;;;;5.04;100.00;99582.44;6312782;20;2861746;-60
2023/04/11 02:36:11;;;;;;;;;61.33;47.33;;;;;5.17;100.00;99584.59;6283814;20;2879747;-60
2023/04/11 02:38:41;;;;;;;;;60.67;47.33;;;;;5.20;100.00;99584.47;6311259;20;3613864;-59
2023/04/11 02:41:10;;;;;;;;;73.00;52.67;;;;;4.95;100.00;99588.13;6309782;20;3643021;-59
2023/04/11 02:43:40;;;;;;;;;62.33;49.33;;;;;5.00;100.00;99578.19;6310879;20;3629497;-60
2023/04/11 02:46:09;;;;;;;;;65.33;50.33;;;;;4.90;100.00;99582.13;6314830;20;2870069;-60
2023/04/11 02:48:40;;;;;;;;;62.00;49.00;;;;;4.90;100.00;99573.25;6309828;20;2864944;-60
2023/04/11 02:51:09;;;;;;;;;63.50;46.50;;;;;4.80;100.00;99586.09;6282107;20;2876774;-60
2023/04/11 02:53:40;;;;;;;;;58.67;46.67;;;;;4.82;100.00;99578.91;6280173;20;2873267;-60
2023/04/11 02:56:17;;;;;;;;;61.33;48.33;;;;;4.97;100.00;99578.28;6311399;20;3604564;-60
2023/04/11 02:58:47;;;;;;;;;53.00;40.50;;;;;4.44;100.00;99552.03;6312923;20;2860698;-60
2023/04/11 03:01:17;;;;;;;;;62.00;48.00;;;;;4.59;100.00;99570.03;6281721;20;2862866;-60
2023/04/11 03:03:46;;;;;;;;;53.00;45.00;;;;;4.40;100.00;99567.22;6283563;20;2865936;-60
2023/04/11 03:06:15;;;;;;;;;54.00;42.50;;;;;4.60;100.00;99569.09;6282316;20;2864853;-60
2023/04/11 03:08:45;;;;;;;;;56.33;43.00;;;;;4.53;100.00;99566.72;6280435;20;2870032;-60
2023/04/11 03:11:15;;;;;;;;;52.00;42.00;;;;;4.64;100.00;99569.00;6311664;20;2855462;-60
2023/04/11 03:13:44;;;;;;;;;54.50;45.00;;;;;4.70;100.00;99563.44;6278608;20;2862891;-60
2023/04/11 03:16:13;;;;;;;;;56.00;46.00;;;;;4.58;100.00;99560.34;6281563;20;2866943;-60
2023/04/11 03:18:42;;;;;;;;;52.50;43.00;;;;;4.14;100.00;99565.56;6281070;20;2858677;-60
2023/04/11 03:21:11;;;;;;;;;48.00;39.00;;;;;4.35;100.00;99563.03;6281453;20;2864900;-60
2023/04/11 03:23:40;;;;;;;;;50.50;39.00;;;;;4.17;100.00;99568.09;6283074;20;2865980;-60
2023/04/11 03:26:09;;;;;;;;;47.00;39.00;;;;;4.13;100.00;99563.84;6282933;20;2874351;-60
2023/04/11 03:28:38;;;;;;;;;51.00;42.00;;;;;4.09;100.00;99562.19;6315150;20;2857754;-60
2023/04/11 03:31:07;;;;;;;;;57.50;46.00;;;;;4.23;100.00;99560.81;6279253;20;2858778;-60
2023/04/11 03:33:35;;;;;;;;;54.00;41.50;;;;;4.04;100.00;99564.16;6278072;20;2500314;-60
2023/04/11 03:36:04;;;;;;;;;57.00;46.50;;;;;4.03;100.00;99554.47;6278904;20;2499207;-60
2023/04/11 03:38:33;;;;;;;;;58.50;46.50;;;;;4.13;100.00;99566.50;6279940;20;2863956;-60
2023/04/11 03:41:02;;;;;;;;;49.50;41.00;;;;;4.17;100.00;99570.75;6279052;20;2851328;-60
2023/04/11 03:43:31;;;;;;;;;58.50;47.00;;;;;4.46;100.00;99579.41;6277930;20;2871256;-60
2023/04/11 03:46:00;;;;;;;;;54.00;41.00;;;;;4.12;100.00;99569.19;6281714;20;2855600;-61
2023/04/11 03:48:29;;;;;;;;;53.00;41.50;;;;;4.37;100.00;99567.34;6281542;20;2849260;-60
2023/04/11 03:50:58;;;;;;;;;48.00;42.00;;;;;4.52;100.00;99568.53;6280747;20;2863817;-60
2023/04/11 03:53:27;;;;;;;;;57.00;45.00;;;;;4.54;100.00;99572.00;6280830;20;2856772;-60
2023/04/11 03:55:56;;;;;;;;;55.50;44.00;;;;;4.48;100.00;99569.59;6281374;20;2866939;-60
2023/04/11 03:58:25;;;;;;;;;62.00;48.00;;;;;4.41;100.00;99560.13;6278233;20;2869049;-60
2023/04/11 04:00:54;;;;;;;;;58.00;48.00;;;;;4.26;100.00;99563.34;6281143;20;2862776;-60
2023/04/11 04:03:23;;;;;;;;;60.00;50.50;;;;;4.20;100.00;99568.91;6281251;20;2856500;-60
2023/04/11 04:05:52;;;;;;;;;64.50;52.50;;;;;4.02;100.00;99565.13;6278023;20;2857540;-60
2023/04/11 04:08:22;;;;;;;;;67.00;53.00;;;;;3.88;100.00;99569.16;6278199;20;2884760;-60
2023/04/11 04:10:51;;;;;;;;;62.50;51.00;;;;;4.02;100.00;99566.00;6309425;20;2854469;-60
2023/04/11 04:13:20;;;;;;;;;59.67;46.00;;;;;3.97;100.00;99565.28;6279912;20;2891019;-60
2023/04/11 04:15:51;;;;;;;;;63.67;49.00;;;;;4.02;100.00;99571.31;6309960;20;2888957;-60
2023/04/11 04:18:20;;;;;;;;;56.67;43.67;;;;;3.45;100.00;99575.09;6311133;20;2871236;-60
2023/04/11 04:20:50;;;;;;;;;36.67;28.33;;;;;3.47;100.00;99573.28;6312398;20;2864948;-60
2023/04/11 04:23:18;;;;;;;;;34.00;23.00;;;;;3.30;100.00;99574.72;6310124;20;2500825;-60
2023/04/11 04:25:49;;;;;;;;;43.33;36.33;;;;;3.20;100.00;99570.63;6277960;20;2871244;-60
2023/04/11 04:28:21;;;;;;;;;38.33;35.00;;;;;3.59;100.00;99567.56;6308760;20;2857610;-60
2023/04/11 04:30:53;;;;;;;;;52.67;39.33;;;;;3.66;100.00;99579.69;6310604;20;2885830;-60
2023/04/11 04:33:23;;;;;;;;;58.33;43.00;;;;;3.64;100.00;99581.53;6310831;20;2872229;-60
2023/04/11 04:35:58;;;;;;;;;60.33;47.67;;;;;3.92;100.00;99575.22;6312355;20;2873347;-60
2023/04/11 04:38:28;;;;;;;;;54.00;41.50;;;;;4.07;100.00;99579.13;6309273;20;2862820;-60
2023/04/11 04:40:57;;;;;;;;;44.00;37.50;;;;;4.03;100.00;99583.69;6274260;20;2861785;-60
2023/04/11 04:43:31;;;;;;;;;50.50;41.00;;;;;4.37;100.00;99583.31;6279957;20;2861779;-60
2023/04/11 04:46:00;;;;;;;;;43.67;39.00;;;;;4.42;100.00;99580.44;6279340;20;2857561;-60
2023/04/11 04:48:30;;;;;;;;;41.33;37.33;;;;;4.69;100.00;99583.00;6310564;20;2864993;-60
2023/04/11 04:50:59;;;;;;;;;52.00;41.00;;;;;5.83;100.00;99580.00;6309278;20;2852377;-60
2023/04/11 04:53:28;;;;;;;;;54.00;44.00;;;;;6.57;100.00;99579.34;6280301;20;2859722;-61
2023/04/11 04:55:58;;;;;;;;;132.00;102.75;;;;;7.34;97.01;99575.63;6278023;20;4484764;-60
2023/04/11 04:58:28;;;;;;;;;75.67;55.33;;;;;8.27;91.52;99575.28;6312885;20;3629405;-60
2023/04/11 05:00:57;;;;;;;;;58.00;47.00;;;;;8.01;92.51;99572.16;6307927;20;2850360;-58
2023/04/11 05:03:26;;;;;;;;;56.00;44.00;;;;;9.13;86.89;99574.03;6282174;20;2861806;-58
2023/04/11 05:05:58;;;;;;;;;43.00;38.00;;;;;6.76;95.13;99569.53;6312251;20;2858610;-58
2023/04/11 05:08:27;;;;;;;;;54.00;44.00;;;;;8.19;93.37;99575.69;6277964;20;2850410;-58
2023/04/11 05:10:55;;;;;;;;;56.00;45.50;;;;;7.34;93.74;99567.63;6279884;20;2853454;-58
2023/04/11 05:13:25;;;;;;;;;55.00;42.67;;;;;6.63;98.83;99565.72;6279601;20;2885726;-58
2023/04/11 05:15:54;;;;;;;;;50.00;40.50;;;;;6.48;100.00;99567.31;6308979;20;2862120;-58
2023/04/11 05:18:23;;;;;;;;;45.50;38.00;;;;;6.87;100.00;99570.81;6276263;20;2852409;-57
2023/04/11 05:20:52;;;;;;;;;41.00;36.33;;;;;7.14;100.00;99565.97;6276976;20;2867069;-58
2023/04/11 05:23:21;;;;;;;;;52.50;43.50;;;;;7.79;96.20;99566.22;6310988;20;2856764;-58
2023/04/11 05:25:50;;;;;;;;;51.50;42.00;;;;;7.41;97.22;99566.38;6276545;20;2866982;-58
2023/04/11 05:28:20;;;;;;;;;47.67;40.00;;;;;8.41;96.20;99564.69;6278509;20;3619040;-58
2023/04/11 05:30:49;;;;;;;;;38.33;36.00;;;;;10.47;86.85;99566.91;6311128;20;2862855;-58
2023/04/11 05:33:22;;;;;;;;;52.00;39.33;;;;;9.16;88.41;99568.53;6312811;20;2869054;-58
2023/04/11 05:35:51;;;;;;;;;41.50;37.00;;;;;8.88;92.81;99561.19;6304777;20;2868689;-58
2023/04/11 05:38:21;;;;;;;;;78.00;61.67;;;;;10.51;87.29;99554.16;6280857;20;3621117;-59
2023/04/11 05:40:50;;;;;;;;;57.00;45.00;;;;;10.31;86.41;99547.34;6307974;20;2862796;-60
2023/04/11 05:43:20;;;;;;;;;40.00;33.67;;;;;10.30;88.83;99546.50;6306899;20;3607697;-62
2023/04/11 05:45:49;;;;;;;;;49.67;35.67;;;;;11.24;83.09;99544.94;6311155;20;3620129;-61
2023/04/11 05:48:19;;;;;;;;;41.67;36.33;;;;;11.14;82.55;99533.97;6278119;20;2862878;-61
2023/04/11 05:50:50;;;;;;;;;40.00;36.00;;;;;10.05;86.60;99538.22;6308935;20;3614896;-62
2023/04/11 05:53:19;;;;;;;;;40.00;35.00;;;;;9.59;90.79;99535.66;6309859;20;2851427;-62
2023/04/11 05:55:49;;;;;;;;;51.33;40.00;;;;;10.09;89.49;99534.41;6277604;20;2864843;-62
2023/04/11 05:58:19;;;;;;;;;51.00;39.33;;;;;10.85;87.94;99538.53;6309436;20;2865932;-62
2023/04/11 06:00:48;;;;;;;;;42.67;38.00;;;;;12.32;82.85;99543.84;6308023;20;2854442;-63
2023/04/11 06:03:17;;;;;;;;;45.00;38.00;;;;;12.70;80.02;99554.56;6308382;20;2846187;-62
2023/04/11 06:05:47;;;;;;;;;48.67;40.33;;;;;15.15;69.00;99556.31;6275257;20;2854452;-65
2023/04/11 06:08:16;;;;;;;;;43.00;36.00;;;;;16.36;62.61;99547.88;6314162;20;3602388;-62
2023/04/11 06:10:45;;;;;;;;;40.00;33.00;;;;;16.49;59.82;99548.50;6281910;20;3601304;-62
2023/04/11 06:13:14;;;;;;;;;40.67;34.33;;;;;15.47;61.24;99540.09;6278080;20;2852351;-62
2023/04/11 06:15:43;;;;;;;;;37.67;31.00;;;;;14.16;66.29;99541.72;6308465;20;3609611;-62
2023/04/11 06:18:12;;;;;;;;;42.00;35.67;;;;;13.17;71.94;99536.72;6279689;20;3614988;-62
2023/04/11 06:20:41;;;;;;;;;36.33;32.00;;;;;13.60;73.85;99538.91;6281136;20;3601353;-62
2023/04/11 06:23:09;;;;;;;;;32.00;30.00;;;;;14.89;67.00;99537.69;6285079;20;3577365;-62
2023/04/11 06:25:38;;;;;;;;;37.33;34.00;;;;;15.84;63.25;99526.16;6277679;20;3614818;-62
2023/04/11 06:28:07;;;;;;;;;46.00;38.00;;;;;16.54;61.43;99534.56;6279525;20;3580450;-62
2023/04/11 06:30:36;;;;;;;;;44.00;36.00;;;;;18.23;57.71;99536.16;6281060;20;2862833;-65
2023/04/11 06:33:05;;;;;;;;;50.00;41.00;;;;;18.21;57.86;99532.72;6282132;20;3594034;-62
2023/04/11 06:35:35;;;;;;;;;38.00;34.00;;;;;19.44;53.04;99537.84;6313503;20;3593027;-62
2023/04/11 06:38:05;;;;;;;;;54.67;45.00;;;;;19.40;52.19;99535.59;6283909;20;2862908;-65
2023/04/11 06:40:34;;;;;;;;;36.67;33.33;;;;;20.15;50.08;99547.00;6319088;20;3592966;-62
2023/04/11 06:43:03;;;;;;;;;45.33;35.33;;;;;21.47;45.61;99554.84;6285359;20;3593995;-62
2023/04/11 06:45:32;;;;;;;;;26.67;26.67;;;;;22.03;42.38;99558.63;6317770;20;3606616;-62
2023/04/11 06:48:01;;;;;;;;;61.33;48.67;;;;;21.69;42.93;99545.13;6285996;20;3623250;-65
2023/04/11 06:50:30;;;;;;;;;20.00;20.00;;;;;22.45;40.96;99548.53;6284058;20;3570147;-65
2023/04/11 06:52:58;;;;;;;;;13.00;13.00;;;;;19.67;47.22;99542.88;6290232;20;2796481;-65
2023/04/11 06:55:26;;;;;;;;;14.00;11.00;;;;;19.76;46.32;99543.81;6285160;20;3524317;-65
2023/04/11 06:57:55;;;;;;;;;13.00;12.00;;;;;18.06;51.57;99534.19;6282356;20;3535700;-64
2023/04/11 07:00:24;;;;;;;;;18.00;17.00;;;;;19.00;48.67;99535.00;6286345;20;3562784;-64
2023/04/11 07:02:52;;;;;;;;;12.67;12.00;;;;;20.30;47.44;99539.97;6283990;20;3536778;-63
2023/04/11 07:05:21;;;;;;;;;11.33;11.33;;;;;20.80;44.39;99541.97;6283735;20;3533708;-63
2023/04/11 07:07:50;;;;;;;;;20.50;17.50;;;;;21.93;42.53;99549.75;6283240;20;2829603;-63
2023/04/11 07:10:19;;;;;;;;;20.00;16.00;;;;;21.70;43.98;99544.97;6286317;20;2830519;-63
2023/04/11 07:12:48;;;;;;;;;12.33;12.33;;;;;22.37;43.22;99538.44;6286121;20;3515884;-63
2023/04/11 07:15:16;;;;;;;;;14.00;14.00;;;;;22.03;41.40;99544.94;6281769;20;3539857;-64
2023/04/11 07:17:47;;;;;;;;;13.00;13.00;;;;;23.36;39.42;99545.28;6285061;20;3523675;-65
2023/04/11 07:20:20;;;;;;;;;12.33;12.33;;;;;20.99;43.32;99534.53;6314228;20;2483625;-65
2023/04/11 07:22:48;;;;;;;;;9.33;9.33;;;;;22.17;41.48;99557.09;6314748;20;3483595;-64
2023/04/11 07:25:21;;;;;;;;;15.00;12.33;;;;;21.45;43.60;99545.94;6315660;20;3524218;-64
2023/04/11 07:27:50;;;;;;;;;14.33;13.33;;;;;20.29;45.20;99543.69;6282787;20;3518097;-64
2023/04/11 07:30:19;;;;;;;;;14.33;13.00;;;;;17.27;52.08;99533.34;6314876;20;3503385;-63
2023/04/11 07:32:47;;;;;;;;;15.67;12.33;;;;;17.12;55.43;99532.03;6318463;20;3539870;-63
2023/04/11 07:35:16;;;;;;;;;23.50;20.00;;;;;16.36;58.18;99516.22;6315613;20;2834767;-63
2023/04/11 07:37:46;;;;;;;;;16.50;15.00;;;;;16.21;59.22;99513.00;6285340;20;2820075;-63
2023/04/11 07:40:14;;;;;;;;;13.50;13.50;;;;;16.08;59.50;99511.50;6285618;20;2491958;-63
2023/04/11 07:42:45;;;;;;;;;19.67;17.67;;;;;15.93;59.97;99502.84;6286827;20;2837855;-63
2023/04/11 07:45:13;;;;;;;;;10.33;10.33;;;;;15.97;57.26;99498.91;6313652;20;2786910;-63
2023/04/11 07:47:42;;;;;;;;;14.00;14.00;;;;;16.00;59.08;99491.34;6316721;20;3529462;-62
2023/04/11 07:50:11;;;;;;;;;12.00;12.00;;;;;16.45;58.46;99493.69;6315134;20;3524232;-62
2023/04/11 07:52:39;;;;;;;;;19.67;18.67;;;;;17.04;58.58;99497.47;6315503;20;3572161;-63
2023/04/11 07:55:09;;;;;;;;;17.50;17.50;;;;;17.10;57.54;99498.75;6281405;20;2831768;-63
2023/04/11 07:57:38;;;;;;;;;16.00;12.00;;;;;16.95;58.74;99498.31;6286499;20;2804562;-62
2023/04/11 08:00:09;;;;;;;;;15.00;15.00;;;;;17.24;56.74;99498.34;6317252;20;2808775;-62
2023/04/11 08:02:39;;;;;;;;;14.67;13.67;;;;;16.86;58.09;99502.72;6281539;20;3523308;-63
2023/04/11 08:05:08;;;;;;;;;15.33;15.33;;;;;15.47;60.06;99491.41;6318838;20;3539856;-62
2023/04/11 08:07:37;;;;;;;;;14.50;14.50;;;;;17.55;55.10;99492.78;6312347;20;2811870;-63
2023/04/11 08:10:07;;;;;;;;;19.00;17.33;;;;;17.45;56.36;99487.34;6282564;20;2487941;-62
2023/04/11 08:12:35;;;;;;;;;16.00;14.00;;;;;16.97;57.00;99490.03;6316021;20;2487792;-63
2023/04/11 08:15:03;;;;;;;;;11.00;11.00;;;;;16.72;56.55;99489.53;6280437;20;2793030;-63
2023/04/11 08:17:36;;;;;;;;;12.00;11.33;;;;;16.40;59.68;99486.97;6284157;20;3518086;-62
2023/04/11 08:20:09;;;;;;;;;14.00;13.50;;;;;17.19;56.50;99487.03;6314682;20;2491973;-63
2023/04/11 08:22:40;;;;;;;;;18.50;17.00;;;;;17.30;56.84;99488.78;6284389;20;2826351;-63
2023/04/11 08:25:13;;;;;;;;;18.33;18.33;;;;;18.05;55.86;99481.72;6282708;20;2839913;-62
2023/04/11 08:27:41;;;;;;;;;18.33;17.33;;;;;18.39;56.05;99467.56;6315412;20;3562822;-63
2023/04/11 08:30:11;;;;;;;;;19.00;17.00;;;;;17.42;57.21;99475.94;6315569;20;2825303;-63
2023/04/11 08:32:41;;;;;;;;;16.00;15.00;;;;;17.70;56.40;99463.34;6284874;20;2817005;-63
2023/04/11 08:35:09;;;;;;;;;14.00;13.00;;;;;16.53;57.16;99463.19;6281379;20;2500413;-62
2023/04/11 08:37:38;;;;;;;;;15.67;15.00;;;;;15.73;62.91;99458.56;6283944;20;3536716;-62
2023/04/11 08:40:08;;;;;;;;;15.50;15.50;;;;;16.97;58.40;99457.50;6313907;20;2819025;-63
2023/04/11 08:42:36;;;;;;;;;17.50;16.50;;;;;17.33;56.73;99458.66;6283850;20;2483628;-63
2023/04/11 08:45:08;;;;;;;;;17.00;16.00;;;;;17.67;54.58;99461.75;6282282;20;2485846;-63
2023/04/11 08:47:36;;;;;;;;;10.00;10.00;;;;;17.51;54.44;99451.50;6281114;20;2782585;-63
2023/04/11 08:50:06;;;;;;;;;15.00;15.00;;;;;17.37;53.82;99448.34;6313799;20;2483618;-63
2023/04/11 08:52:37;;;;;;;;;14.67;14.67;;;;;17.40;54.89;99432.63;6280584;20;3528632;-62
2023/04/11 08:55:07;;;;;;;;;14.00;14.00;;;;;17.18;56.27;99431.09;6278928;20;3537937;-63
2023/04/11 08:57:37;;;;;;;;;15.00;15.00;;;;;16.67;55.10;99434.88;6281723;20;3533615;-63
2023/04/11 09:00:10;;;;;;;;;16.50;16.50;;;;;16.04;58.07;99418.84;6280773;20;2829577;-63
2023/04/11 09:03:02;;;;;;;;;12.00;11.00;;;;;15.93;58.69;99406.25;6283370;20;3524723;-63
2023/04/11 09:05:37;;;;;;;;;15.67;13.00;;;;;16.81;54.31;99401.94;6311577;20;3541941;-62
2023/04/11 09:08:09;;;;;;;;;16.67;15.33;;;;;16.70;54.01;99399.34;6281372;20;2818048;-63
2023/04/11 09:10:43;;;;;;;;;17.00;15.67;;;;;16.88;55.90;99396.81;6316049;20;3550250;-63
2023/04/11 09:13:25;;;;;;;;;17.50;13.50;;;;;17.34;52.61;99395.22;6312902;20;2477438;-63
2023/04/11 09:16:13;;;;;;;;;15.00;15.00;;;;;17.60;52.84;99386.47;6280013;20;2483647;-63
2023/04/11 09:18:46;;;;;;;;;17.00;16.00;;;;;17.77;50.56;99381.13;6285034;20;3561725;-63
2023/04/11 09:21:17;;;;;;;;;14.00;14.00;;;;;17.76;51.93;99382.13;6309927;20;2491990;-63
2023/04/11 09:23:46;;;;;;;;;19.00;17.50;;;;;17.64;51.25;99380.59;6280298;20;2829559;-63
2023/04/11 09:26:28;;;;;;;;;20.50;18.50;;;;;18.26;51.48;99377.38;6283185;20;2842018;-63
2023/04/11 09:28:57;;;;;;;;;19.50;17.00;;;;;17.94;50.72;99374.09;6282991;20;2832563;-63
2023/04/11 09:31:44;;;;;;;;;23.67;19.00;;;;;17.70;50.83;99371.88;6286134;20;3579469;-62
2023/04/11 09:34:14;;;;;;;;;19.00;19.00;;;;;17.45;52.51;99376.06;6282087;20;3568127;-63
2023/04/11 09:36:54;;;;;;;;;19.33;19.33;;;;;17.61;52.88;99382.75;6279533;20;3561844;-62
2023/04/11 09:39:27;;;;;;;;;24.00;24.00;;;;;18.38;51.03;99378.91;6314789;20;3589885;-63
2023/04/11 09:41:56;;;;;;;;;20.00;19.33;;;;;17.46;51.63;99369.66;6284743;20;3573196;-63
2023/04/11 09:44:37;;;;;;;;;20.33;18.67;;;;;17.95;52.50;99369.50;6284392;20;3564996;-63
2023/04/11 09:47:06;;;;;;;;;22.33;21.33;;;;;17.84;52.64;99356.13;6283110;20;3564877;-63
2023/04/11 09:49:35;;;;;;;;;15.50;14.50;;;;;17.32;51.11;99349.25;6281718;20;2812832;-63
2023/04/11 09:52:05;;;;;;;;;20.00;18.50;;;;;16.86;53.38;99350.00;6277889;20;2835816;-63
2023/04/11 09:54:34;;;;;;;;;16.00;13.00;;;;;16.83;54.52;99353.84;6282494;20;2804485;-63
2023/04/11 09:57:05;;;;;;;;;18.50;18.00;;;;;16.82;53.49;99349.41;6280603;20;2837848;-63
2023/04/11 09:59:38;;;;;;;;;17.50;16.00;;;;;17.32;52.94;99335.69;6280810;20;2823326;-64
2023/04/11 10:02:07;;;;;;;;;18.50;17.50;;;;;17.55;51.67;99343.47;6280161;20;2836732;-63
2023/04/11 10:04:35;;;;;;;;;16.50;14.00;;;;;17.55;51.63;99329.91;6281639;20;2491964;-63
2023/04/11 10:07:15;;;;;;;;;13.67;12.00;;;;;17.81;51.19;99330.13;6287198;20;3525355;-63
2023/04/11 10:09:46;;;;;;;;;12.50;12.50;;;;;17.55;51.83;99329.91;6286984;20;2496253;-63
2023/04/11 10:12:31;;;;;;;;;15.33;15.33;;;;;17.80;51.05;99327.53;6288724;20;3540924;-63
2023/04/11 10:15:07;;;;;;;;;15.67;14.67;;;;;17.92;49.81;99323.63;6323419;20;3538967;-64
2023/04/11 10:17:36;;;;;;;;;18.33;16.00;;;;;19.34;48.00;99324.72;6312965;20;3565920;-63
2023/04/11 10:20:47;;;;;;;;;16.50;16.50;;;;;19.49;47.11;99317.69;6284357;20;2831690;-64
2023/04/11 10:23:15;;;;;;;;;15.00;15.00;;;;;19.25;46.88;99323.81;6286540;20;2492187;-63
2023/04/11 10:26:00;;;;;;;;;13.00;11.00;;;;;18.84;46.94;99304.44;6284747;20;2492099;-63
2023/04/11 10:28:38;;;;;;;;;19.50;16.50;;;;;19.03;46.40;99306.09;6285110;20;2836724;-63
2023/04/11 10:31:16;;;;;;;;;16.67;15.33;;;;;18.48;49.74;99299.97;6287939;20;3551312;-63
2023/04/11 10:34:23;;;;;;;;;17.50;15.50;;;;;17.55;49.08;99298.16;6314175;20;2822599;-62
2023/04/11 10:37:06;;;;;;;;;15.00;15.00;;;;;19.24;48.52;99303.03;6282555;20;2812950;-64
2023/04/11 10:39:50;;;;;;;;;15.67;15.00;;;;;18.32;48.86;99306.94;6280043;20;3536761;-63
2023/04/11 10:42:33;;;;;;;;;18.00;17.00;;;;;17.82;49.58;99303.81;6282325;20;2832582;-63
2023/04/11 10:45:23;;;;;;;;;14.00;14.00;;;;;18.11;50.51;99298.22;6282835;20;2794148;-63
2023/04/11 10:48:11;;;;;;;;;21.00;18.00;;;;;18.42;48.83;99287.84;6305864;20;2841974;-63
2023/04/11 10:50:43;;;;;;;;;19.33;18.00;;;;;18.83;47.92;99277.41;6286116;20;3568172;-64
2023/04/11 10:53:35;;;;;;;;;18.00;18.00;;;;;19.62;47.24;99284.56;6277869;20;2483622;-67
2023/04/11 10:56:05;;;;;;;;;17.33;16.67;;;;;19.31;46.64;99278.75;6286463;20;3569176;-62
2023/04/11 10:58:38;;;;;;;;;18.67;18.67;;;;;18.86;49.07;99271.63;6287481;20;3577391;-63
2023/04/11 11:01:15;;;;;;;;;13.50;13.50;;;;;19.60;47.00;99275.69;6283696;20;2496120;-63
2023/04/11 11:04:00;;;;;;;;;20.67;19.00;;;;;18.24;49.66;99263.38;6282302;20;2839966;-63
2023/04/11 11:06:29;;;;;;;;;19.67;19.67;;;;;17.68;49.62;99259.81;6316087;20;3585803;-64
2023/04/11 11:08:59;;;;;;;;;19.50;18.50;;;;;18.39;48.35;99248.25;6280130;20;2837834;-63
2023/04/11 11:11:27;;;;;;;;;19.33;19.33;;;;;19.80;48.04;99259.13;6285794;20;3568982;-63
2023/04/11 11:13:56;;;;;;;;;15.33;15.00;;;;;18.16;46.80;99245.13;6282661;20;3544027;-63
2023/04/11 11:16:26;;;;;;;;;17.67;15.67;;;;;18.68;47.82;99249.88;6308477;20;2823349;-64
2023/04/11 11:18:58;;;;;;;;;12.50;12.50;;;;;19.21;46.83;99253.50;6315511;20;2789915;-65